createdAt,value
2019-05-02T00:00:54.907Z,7.16
2019-05-02T00:01:54.854Z,7.23
2019-05-02T00:02:54.845Z,7.13
2019-05-02T00:03:54.839Z,7.09
2019-05-02T00:04:55.924Z,7.02
2019-05-02T00:05:54.847Z,6.97
2019-05-02T00:06:54.800Z,6.87
2019-05-02T00:07:58.522Z,6.86
2019-05-02T00:08:54.789Z,6.80
2019-05-02T00:09:54.775Z,6.86
2019-05-02T00:10:54.817Z,6.89
2019-05-02T00:11:58.854Z,6.81
2019-05-02T00:12:54.738Z,6.77
2019-05-02T00:13:54.723Z,6.79
2019-05-02T00:14:56.494Z,6.83
2019-05-02T00:15:55.733Z,6.79
2019-05-02T00:16:54.695Z,6.71
2019-05-02T00:17:56.800Z,6.72
2019-05-02T00:18:55.679Z,6.79
2019-05-02T00:19:54.675Z,6.73
2019-05-02T00:20:57.034Z,6.69
2019-05-02T00:21:55.636Z,6.77
2019-05-02T00:22:54.651Z,6.79
2019-05-02T00:23:59.083Z,6.73
2019-05-02T00:24:55.615Z,6.71
2019-05-02T00:25:54.637Z,6.80
2019-05-02T00:26:56.121Z,6.76
2019-05-02T00:27:55.578Z,6.65
2019-05-02T00:28:54.576Z,6.65
2019-05-02T00:29:58.682Z,6.65
2019-05-02T00:30:55.569Z,6.65
2019-05-02T00:31:54.538Z,6.66
2019-05-02T00:32:58.257Z,6.56
2019-05-02T00:33:55.525Z,6.56
2019-05-02T00:34:54.503Z,6.59
2019-05-02T00:35:54.527Z,6.58
2019-05-02T00:36:54.484Z,6.54
2019-05-02T00:37:57.394Z,6.51
2019-05-02T00:38:55.454Z,6.51
2019-05-02T00:39:54.452Z,6.51
2019-05-02T00:40:57.416Z,6.41
2019-05-02T00:41:55.433Z,6.43
2019-05-02T00:42:58.275Z,6.33
2019-05-02T00:43:55.413Z,6.32
2019-05-02T00:44:54.404Z,6.26
2019-05-02T00:45:55.094Z,6.22
2019-05-02T00:46:55.390Z,6.14
2019-05-02T00:47:54.365Z,6.09
2019-05-02T00:48:59.834Z,6.10
2019-05-02T00:49:55.355Z,6.09
2019-05-02T00:50:54.365Z,6.14
2019-05-02T00:51:56.568Z,6.09
2019-05-02T00:52:55.315Z,6.03
2019-05-02T00:53:54.303Z,6.09
2019-05-02T00:54:54.934Z,6.06
2019-05-02T00:55:54.335Z,6.03
2019-05-02T00:56:54.280Z,6.10
2019-05-02T00:57:55.651Z,6.03
2019-05-02T00:58:54.256Z,5.95
2019-05-02T00:59:54.248Z,5.98
2019-05-02T01:00:54.885Z,5.88
2019-05-02T01:01:54.260Z,5.92
2019-05-02T01:02:54.216Z,5.83
2019-05-02T01:03:54.200Z,5.78
2019-05-02T01:04:54.198Z,5.57
2019-05-02T01:05:54.176Z,5.56
2019-05-02T01:06:54.198Z,5.59
2019-05-02T01:07:56.032Z,5.43
2019-05-02T01:08:55.149Z,5.41
2019-05-02T01:09:54.139Z,5.30
2019-05-02T01:10:56.766Z,5.22
2019-05-02T01:11:54.138Z,5.20
2019-05-02T01:12:54.112Z,5.28
2019-05-02T01:13:55.811Z,5.13
2019-05-02T01:14:54.083Z,5.14
2019-05-02T01:15:54.071Z,5.10
2019-05-02T01:16:54.785Z,5.04
2019-05-02T01:17:54.051Z,5.01
2019-05-02T01:18:54.056Z,4.99
2019-05-02T01:19:54.037Z,4.91
2019-05-02T01:20:58.139Z,4.91
2019-05-02T01:21:55.041Z,4.86
2019-05-02T01:22:54.003Z,5.02
2019-05-02T01:23:53.984Z,5.02
2019-05-02T01:24:53.995Z,4.96
2019-05-02T01:25:54.577Z,4.99
2019-05-02T01:26:53.989Z,4.99
2019-05-02T01:27:53.947Z,4.86
2019-05-02T01:28:55.547Z,4.79
2019-05-02T01:29:53.926Z,4.88
2019-05-02T01:30:53.916Z,4.92
2019-05-02T01:31:54.691Z,4.95
2019-05-02T01:32:53.891Z,5.01
2019-05-02T01:33:53.880Z,5.01
2019-05-02T01:34:54.314Z,4.98
2019-05-02T01:35:53.865Z,5.16
2019-05-02T01:36:53.883Z,5.16
2019-05-02T01:37:54.930Z,5.28
2019-05-02T01:38:53.828Z,5.14
2019-05-02T01:39:53.822Z,5.20
2019-05-02T01:40:54.761Z,5.20
2019-05-02T01:41:53.834Z,5.16
2019-05-02T01:42:53.785Z,5.23
2019-05-02T01:43:54.869Z,5.20
2019-05-02T01:44:54.757Z,5.23
2019-05-02T01:45:53.757Z,5.12
2019-05-02T01:46:53.974Z,5.32
2019-05-02T01:47:53.732Z,5.27
2019-05-02T01:48:53.725Z,5.17
2019-05-02T01:49:57.352Z,5.28
2019-05-02T01:50:54.703Z,5.28
2019-05-02T01:51:53.732Z,5.13
2019-05-02T01:52:58.404Z,5.31
2019-05-02T01:53:54.670Z,5.23
2019-05-02T01:54:53.667Z,5.20
2019-05-02T01:55:57.621Z,5.27
2019-05-02T01:56:54.698Z,5.20
2019-05-02T01:57:53.626Z,5.19
2019-05-02T01:58:57.823Z,5.25
2019-05-02T01:59:54.635Z,5.19
2019-05-02T02:00:53.599Z,5.30
2019-05-02T02:01:57.970Z,5.30
2019-05-02T02:02:54.593Z,5.27
2019-05-02T02:03:53.565Z,5.23
2019-05-02T02:04:56.892Z,5.19
2019-05-02T02:05:53.549Z,5.12
2019-05-02T02:06:53.543Z,5.12
2019-05-02T02:07:55.459Z,5.12
2019-05-02T02:08:53.508Z,5.25
2019-05-02T02:09:53.497Z,5.13
2019-05-02T02:10:56.603Z,5.17
2019-05-02T02:11:53.474Z,5.22
2019-05-02T02:13:03.344Z,5.34
2019-05-02T02:13:54.455Z,5.40
2019-05-02T02:14:55.440Z,5.56
2019-05-02T02:15:53.433Z,5.52
2019-05-02T02:16:53.437Z,5.59
2019-05-02T02:17:53.436Z,5.68
2019-05-02T02:18:53.398Z,5.74
2019-05-02T02:19:53.398Z,5.75
2019-05-02T02:20:53.383Z,5.77
2019-05-02T02:21:57.416Z,5.81
2019-05-02T02:22:54.390Z,5.78
2019-05-02T02:23:53.392Z,5.91
2019-05-02T02:24:55.886Z,5.86
2019-05-02T02:25:54.332Z,5.89
2019-05-02T02:26:53.332Z,5.98
2019-05-02T02:27:54.902Z,5.96
2019-05-02T02:28:54.295Z,5.93
2019-05-02T02:29:53.327Z,5.95
2019-05-02T02:30:57.967Z,6.00
2019-05-02T02:31:54.264Z,6.03
2019-05-02T02:32:53.288Z,5.98
2019-05-02T02:33:53.255Z,6.03
2019-05-02T02:34:53.250Z,6.04
2019-05-02T02:35:53.244Z,6.01
2019-05-02T02:36:53.219Z,6.07
2019-05-02T02:37:55.668Z,6.13
2019-05-02T02:38:53.231Z,6.19
2019-05-02T02:39:54.186Z,6.11
2019-05-02T02:40:53.178Z,6.29
2019-05-02T02:41:54.245Z,6.32
2019-05-02T02:42:53.193Z,6.36
2019-05-02T02:43:54.816Z,6.25
2019-05-02T02:44:54.150Z,6.21
2019-05-02T02:45:57.596Z,6.26
2019-05-02T02:46:54.126Z,6.22
2019-05-02T02:48:00.048Z,6.28
2019-05-02T02:48:54.099Z,6.29
2019-05-02T02:49:56.132Z,6.29
2019-05-02T02:50:54.084Z,6.36
2019-05-02T02:51:57.913Z,6.32
2019-05-02T02:52:54.080Z,6.38
2019-05-02T02:54:02.652Z,6.35
2019-05-02T02:54:54.028Z,6.40
2019-05-02T02:56:01.148Z,6.50
2019-05-02T02:56:54.008Z,6.35
2019-05-02T02:57:58.417Z,6.41
2019-05-02T02:58:54.023Z,6.38
2019-05-02T02:59:52.987Z,6.38
2019-05-02T03:00:52.968Z,6.43
2019-05-02T03:01:52.947Z,6.40
2019-05-02T03:02:52.948Z,6.43
2019-05-02T03:03:52.959Z,6.43
2019-05-02T03:04:52.928Z,6.47
2019-05-02T03:05:58.738Z,6.35
2019-05-02T03:06:53.899Z,6.41
2019-05-02T03:07:52.890Z,6.41
2019-05-02T03:08:52.907Z,6.51
2019-05-02T03:09:52.871Z,6.38
2019-05-02T03:10:52.854Z,6.41
2019-05-02T03:11:56.255Z,6.36
2019-05-02T03:12:53.837Z,6.48
2019-05-02T03:13:54.181Z,6.40
2019-05-02T03:14:53.814Z,6.38
2019-05-02T03:15:52.882Z,6.41
2019-05-02T03:16:52.795Z,6.40
2019-05-02T03:17:52.805Z,6.38
2019-05-02T03:18:52.857Z,6.48
2019-05-02T03:19:54.289Z,6.41
2019-05-02T03:20:53.745Z,6.44
2019-05-02T03:21:54.556Z,6.40
2019-05-02T03:22:53.734Z,6.47
2019-05-02T03:24:01.640Z,6.35
2019-05-02T03:24:53.703Z,6.47
2019-05-02T03:25:52.722Z,6.35
2019-05-02T03:26:55.139Z,6.43
2019-05-02T03:27:52.676Z,6.40
2019-05-02T03:28:58.472Z,6.41
2019-05-02T03:29:53.654Z,6.40
2019-05-02T03:30:52.645Z,6.46
2019-05-02T03:32:11.616Z,6.47
2019-05-02T03:33:06.702Z,6.38
2019-05-02T03:33:59.666Z,6.44
2019-05-02T03:34:54.337Z,6.40
2019-05-02T03:35:52.593Z,6.43
2019-05-02T03:36:52.582Z,6.38
2019-05-02T03:37:53.173Z,6.33
2019-05-02T03:38:52.591Z,6.41
2019-05-02T03:39:57.402Z,6.38
2019-05-02T03:40:53.533Z,6.41
2019-05-02T03:41:55.458Z,6.46
2019-05-02T03:42:53.517Z,6.36
2019-05-02T03:44:09.817Z,6.51
2019-05-02T03:44:56.194Z,6.40
2019-05-02T03:45:53.503Z,6.38
2019-05-02T03:46:54.517Z,6.47
2019-05-02T03:47:53.494Z,6.38
2019-05-02T03:48:52.454Z,6.40
2019-05-02T03:49:52.624Z,6.43
2019-05-02T03:50:52.435Z,6.38
2019-05-02T03:51:55.867Z,6.43
2019-05-02T03:52:53.472Z,6.46
2019-05-02T03:53:52.400Z,6.43
2019-05-02T03:54:52.806Z,6.43
2019-05-02T03:55:52.397Z,6.36
2019-05-02T03:56:53.428Z,6.40
2019-05-02T03:57:52.359Z,6.41
2019-05-02T03:58:56.000Z,6.40
2019-05-02T03:59:53.368Z,6.43
2019-05-02T04:01:00.801Z,6.41
2019-05-02T04:01:53.314Z,6.43
2019-05-02T04:02:58.911Z,6.46
2019-05-02T04:03:53.309Z,6.46
2019-05-02T04:04:54.098Z,6.46
2019-05-02T04:05:53.271Z,6.51
2019-05-02T04:06:54.983Z,6.48
2019-05-02T04:07:53.253Z,6.50
2019-05-02T04:08:58.856Z,6.47
2019-05-02T04:09:53.264Z,6.51
2019-05-02T04:10:58.967Z,6.50
2019-05-02T04:11:53.218Z,6.47
2019-05-02T04:12:53.014Z,6.48
2019-05-02T04:13:53.188Z,6.43
2019-05-02T04:14:55.319Z,6.50
2019-05-02T04:15:52.173Z,6.51
2019-05-02T04:16:55.246Z,6.47
2019-05-02T04:17:53.151Z,6.47
2019-05-02T04:18:55.677Z,6.47
2019-05-02T04:19:53.151Z,6.47
2019-05-02T04:20:52.168Z,6.51
2019-05-02T04:21:54.880Z,6.56
2019-05-02T04:22:52.103Z,6.50
2019-05-02T04:23:52.087Z,6.54
2019-05-02T04:24:56.785Z,6.48
2019-05-02T04:25:53.060Z,6.48
2019-05-02T04:26:55.888Z,6.48
2019-05-02T04:27:52.050Z,6.48
2019-05-02T04:28:53.679Z,6.51
2019-05-02T04:29:52.056Z,6.51
2019-05-02T04:30:53.959Z,6.48
2019-05-02T04:31:51.999Z,6.47
2019-05-02T04:32:55.936Z,6.51
2019-05-02T04:33:51.994Z,6.47
2019-05-02T04:34:55.149Z,6.59
2019-05-02T04:35:52.963Z,6.47
2019-05-02T04:37:00.255Z,6.51
2019-05-02T04:37:52.941Z,6.50
2019-05-02T04:38:52.740Z,6.47
2019-05-02T04:39:53.761Z,6.54
2019-05-02T04:40:52.931Z,6.50
2019-05-02T04:41:51.896Z,6.51
2019-05-02T04:43:02.039Z,6.53
2019-05-02T04:43:57.594Z,6.61
2019-05-02T04:45:11.618Z,6.54
2019-05-02T04:45:57.426Z,6.58
2019-05-02T04:46:59.816Z,6.61
2019-05-02T04:47:58.458Z,6.53
2019-05-02T04:48:53.301Z,6.62
2019-05-02T04:49:52.208Z,6.63
2019-05-02T04:50:52.163Z,6.68
2019-05-02T04:52:01.494Z,6.62
2019-05-02T04:52:54.117Z,6.76
2019-05-02T04:53:51.788Z,6.66
2019-05-02T04:54:51.786Z,6.72
2019-05-02T04:56:01.948Z,6.79
2019-05-02T04:56:55.314Z,6.83
2019-05-02T04:57:51.727Z,6.81
2019-05-02T04:58:51.732Z,6.81
2019-05-02T05:00:02.560Z,6.84
2019-05-02T05:00:58.009Z,6.87
2019-05-02T05:01:57.176Z,6.94
2019-05-02T05:02:53.238Z,6.94
2019-05-02T05:03:58.672Z,6.87
2019-05-02T05:04:52.664Z,7.02
2019-05-02T05:05:51.683Z,6.87
2019-05-02T05:06:56.076Z,6.97
2019-05-02T05:07:52.620Z,6.98
2019-05-02T05:08:51.618Z,6.99
2019-05-02T05:09:57.878Z,6.95
2019-05-02T05:10:52.639Z,6.97
2019-05-02T05:11:53.879Z,6.99
2019-05-02T05:12:52.562Z,7.04
2019-05-02T05:13:52.457Z,7.15
2019-05-02T05:14:52.625Z,7.09
2019-05-02T05:15:52.082Z,7.09
2019-05-02T05:16:55.505Z,7.09
2019-05-02T05:17:52.586Z,7.15
2019-05-02T05:18:53.206Z,7.16
2019-05-02T05:19:51.495Z,7.13
2019-05-02T05:20:52.909Z,7.15
2019-05-02T05:21:51.464Z,7.13
2019-05-02T05:22:51.464Z,7.12
2019-05-02T05:23:51.763Z,7.12
2019-05-02T05:24:51.438Z,7.16
2019-05-02T05:25:55.751Z,7.15
2019-05-02T05:26:52.456Z,7.15
2019-05-02T05:28:05.865Z,7.22
2019-05-02T05:28:51.376Z,7.23
2019-05-02T05:29:53.583Z,7.32
2019-05-02T05:30:54.405Z,7.27
2019-05-02T05:31:55.032Z,7.38
2019-05-02T05:32:52.342Z,7.22
2019-05-02T05:33:51.326Z,7.23
2019-05-02T05:34:51.315Z,7.31
2019-05-02T05:35:52.650Z,7.23
2019-05-02T05:36:51.326Z,7.26
2019-05-02T05:37:52.893Z,7.27
2019-05-02T05:38:51.271Z,7.34
2019-05-02T05:39:52.712Z,7.41
2019-05-02T05:40:51.248Z,7.35
2019-05-02T05:41:52.401Z,7.40
2019-05-02T05:42:51.222Z,7.45
2019-05-02T05:43:53.606Z,7.40
2019-05-02T05:44:51.203Z,7.42
2019-05-02T05:45:56.311Z,7.42
2019-05-02T05:46:52.212Z,7.42
2019-05-02T05:47:56.525Z,7.37
2019-05-02T05:48:52.212Z,7.47
2019-05-02T05:49:52.144Z,7.37
2019-05-02T05:50:52.144Z,7.50
2019-05-02T05:51:54.272Z,7.59
2019-05-02T05:52:52.173Z,7.45
2019-05-02T05:53:52.309Z,7.52
2019-05-02T05:54:52.116Z,7.50
2019-05-02T05:55:53.565Z,7.53
2019-05-02T05:56:52.104Z,7.59
2019-05-02T05:57:59.691Z,7.52
2019-05-02T05:58:52.628Z,7.49
2019-05-02T05:59:51.065Z,7.49
2019-05-02T06:00:55.414Z,7.53
2019-05-02T06:01:52.046Z,7.56
2019-05-02T06:02:56.258Z,7.62
2019-05-02T06:03:51.998Z,7.56
2019-05-02T06:04:55.194Z,7.59
2019-05-02T06:05:51.983Z,7.60
2019-05-02T06:06:54.127Z,7.77
2019-05-02T06:07:51.962Z,7.72
2019-05-02T06:08:54.246Z,7.74
2019-05-02T06:09:50.938Z,7.75
2019-05-02T06:10:50.936Z,7.77
2019-05-02T06:11:55.491Z,7.77
2019-05-02T06:12:50.906Z,7.82
2019-05-02T06:13:50.895Z,7.89
2019-05-02T06:14:50.895Z,7.84
2019-05-02T06:16:01.574Z,7.82
2019-05-02T06:16:53.173Z,7.82
2019-05-02T06:17:50.858Z,7.84
2019-05-02T06:18:50.845Z,7.89
2019-05-02T06:19:53.695Z,7.97
2019-05-02T06:20:50.824Z,7.89
2019-05-02T06:21:50.837Z,7.84
2019-05-02T06:22:54.908Z,7.75
2019-05-02T06:23:51.796Z,7.82
2019-05-02T06:24:52.103Z,7.84
2019-05-02T06:25:50.772Z,7.84
2019-05-02T06:26:51.818Z,7.82
2019-05-02T06:27:50.746Z,7.82
2019-05-02T06:28:50.746Z,7.78
2019-05-02T06:29:51.095Z,7.89
2019-05-02T06:30:51.716Z,7.84
2019-05-02T06:31:50.729Z,7.81
2019-05-02T06:32:54.938Z,7.85
2019-05-02T06:33:51.678Z,7.84
2019-05-02T06:34:50.675Z,7.85
2019-05-02T06:35:51.847Z,7.81
2019-05-02T06:36:51.686Z,7.82
2019-05-02T06:37:51.977Z,7.96
2019-05-02T06:38:52.337Z,7.97
2019-05-02T06:39:51.621Z,7.92
2019-05-02T06:40:50.610Z,7.84
2019-05-02T06:41:52.045Z,7.96
2019-05-02T06:42:51.615Z,7.92
2019-05-02T06:43:50.588Z,7.94
2019-05-02T06:44:54.876Z,7.92
2019-05-02T06:45:51.563Z,7.96
2019-05-02T06:46:50.549Z,8.02
2019-05-02T06:47:50.562Z,8.08
2019-05-02T06:48:52.219Z,8.10
2019-05-02T06:49:50.515Z,8.11
2019-05-02T06:50:50.507Z,8.11
2019-05-02T06:51:50.966Z,8.11
2019-05-02T06:52:51.510Z,8.15
2019-05-02T06:53:50.471Z,8.12
2019-05-02T06:54:54.080Z,8.07
2019-05-02T06:55:51.450Z,8.12
2019-05-02T06:56:50.458Z,8.15
2019-05-02T06:57:51.782Z,8.11
2019-05-02T06:58:50.415Z,8.25
2019-05-02T06:59:54.673Z,8.29
2019-05-02T07:00:58.191Z,8.26
2019-05-02T07:01:52.392Z,8.22
2019-05-02T07:02:51.398Z,8.33
2019-05-02T07:03:50.364Z,8.37
2019-05-02T07:04:54.753Z,8.62
2019-05-02T07:05:50.347Z,8.57
2019-05-02T07:06:58.547Z,8.72
2019-05-02T07:07:51.445Z,8.88
2019-05-02T07:08:50.434Z,8.81
2019-05-02T07:09:50.346Z,8.79
2019-05-02T07:10:50.319Z,8.88
2019-05-02T07:11:56.908Z,8.90
2019-05-02T07:13:02.239Z,8.88
2019-05-02T07:13:51.332Z,8.90
2019-05-02T07:14:50.247Z,8.72
2019-05-02T07:15:50.238Z,8.76
2019-05-02T07:16:54.495Z,8.79
2019-05-02T07:17:51.245Z,8.87
2019-05-02T07:18:50.205Z,8.87
2019-05-02T07:19:50.193Z,8.96
2019-05-02T07:20:50.184Z,9.05
2019-05-02T07:21:53.053Z,9.18
2019-05-02T07:22:51.186Z,9.02
2019-05-02T07:23:53.673Z,9.16
2019-05-02T07:24:50.145Z,9.15
2019-05-02T07:25:50.128Z,9.25
2019-05-02T07:26:52.069Z,9.24
2019-05-02T07:27:51.133Z,9.20
2019-05-02T07:28:50.095Z,9.32
2019-05-02T07:29:52.209Z,9.31
2019-05-02T07:30:51.078Z,9.21
2019-05-02T07:31:50.080Z,9.15
2019-05-02T07:32:50.083Z,9.25
2019-05-02T07:33:50.047Z,9.13
2019-05-02T07:34:50.047Z,9.10
2019-05-02T07:35:50.025Z,9.31
2019-05-02T07:36:50.017Z,9.30
2019-05-02T07:37:50.128Z,9.43
2019-05-02T07:38:49.995Z,9.27
2019-05-02T07:39:49.990Z,9.27
2019-05-02T07:40:53.131Z,9.45
2019-05-02T07:41:49.963Z,9.42
2019-05-02T07:42:49.954Z,9.30
2019-05-02T07:43:52.187Z,9.49
2019-05-02T07:44:50.930Z,9.56
2019-05-02T07:45:49.924Z,9.66
2019-05-02T07:46:51.927Z,9.46
2019-05-02T07:47:49.901Z,9.57
2019-05-02T07:48:54.436Z,9.76
2019-05-02T07:49:49.882Z,9.66
2019-05-02T07:50:50.318Z,9.82
2019-05-02T07:51:52.390Z,9.88
2019-05-02T07:52:50.851Z,10.01
2019-05-02T07:53:49.895Z,10.18
2019-05-02T07:54:49.825Z,10.21
2019-05-02T07:55:49.813Z,10.01
2019-05-02T07:56:53.437Z,9.99
2019-05-02T07:57:49.789Z,10.17
2019-05-02T07:58:49.814Z,10.22
2019-05-02T07:59:50.059Z,10.26
2019-05-02T08:00:49.763Z,10.12
2019-05-02T08:01:50.908Z,10.22
2019-05-02T08:02:49.739Z,10.19
2019-05-02T08:03:49.751Z,10.26
2019-05-02T08:04:49.718Z,10.30
2019-05-02T08:05:49.703Z,10.59
2019-05-02T08:06:49.693Z,10.42
2019-05-02T08:07:53.487Z,10.53
2019-05-02T08:08:50.696Z,10.63
2019-05-02T08:09:49.704Z,10.83
2019-05-02T08:10:53.843Z,10.77
2019-05-02T08:11:50.635Z,10.80
2019-05-02T08:12:49.629Z,10.92
2019-05-02T08:13:55.101Z,10.95
2019-05-02T08:14:50.604Z,11.14
2019-05-02T08:15:50.821Z,11.11
2019-05-02T08:16:49.583Z,11.13
2019-05-02T08:17:53.738Z,11.16
2019-05-02T08:18:50.598Z,11.11
2019-05-02T08:19:49.553Z,11.02
2019-05-02T08:20:51.030Z,10.80
2019-05-02T08:21:50.535Z,10.95
2019-05-02T08:22:50.413Z,11.07
2019-05-02T08:23:49.543Z,11.29
2019-05-02T08:24:49.504Z,11.28
2019-05-02T08:25:49.486Z,11.19
2019-05-02T08:26:53.345Z,11.09
2019-05-02T08:27:50.468Z,11.27
2019-05-02T08:28:51.961Z,11.38
2019-05-02T08:29:49.443Z,11.43
2019-05-02T08:30:49.435Z,11.65
2019-05-02T08:31:49.425Z,11.67
2019-05-02T08:32:49.413Z,11.75
2019-05-02T08:33:49.430Z,11.56
2019-05-02T08:34:51.881Z,11.52
2019-05-02T08:35:49.381Z,11.57
2019-05-02T08:36:49.372Z,11.54
2019-05-02T08:37:49.390Z,11.90
2019-05-02T08:38:53.692Z,11.77
2019-05-02T08:39:50.338Z,11.99
2019-05-02T08:40:49.791Z,12.27
2019-05-02T08:41:51.235Z,12.51
2019-05-02T08:42:50.334Z,12.62
2019-05-02T08:43:49.294Z,12.64
2019-05-02T08:44:51.160Z,12.75
2019-05-02T08:45:49.290Z,12.81
2019-05-02T08:46:51.519Z,13.04
2019-05-02T08:47:49.288Z,13.00
2019-05-02T08:48:50.838Z,13.40
2019-05-02T08:49:54.358Z,13.40
2019-05-02T08:50:50.219Z,13.62
2019-05-02T08:51:49.222Z,13.79
2019-05-02T08:52:49.230Z,13.54
2019-05-02T08:53:52.146Z,13.30
2019-05-02T08:54:50.177Z,14.16
2019-05-02T08:55:49.167Z,14.04
2019-05-02T08:56:53.279Z,13.76
2019-05-02T08:57:50.176Z,13.71
2019-05-02T08:58:49.928Z,13.59
2019-05-02T08:59:49.137Z,13.84
2019-05-02T09:00:49.128Z,14.07
2019-05-02T09:01:49.801Z,14.38
2019-05-02T09:02:49.126Z,14.28
2019-05-02T09:03:55.525Z,14.84
2019-05-02T09:04:58.377Z,14.95
2019-05-02T09:05:50.076Z,15.36
2019-05-02T09:06:53.141Z,15.70
2019-05-02T09:07:50.090Z,15.96
2019-05-02T09:08:51.510Z,15.93
2019-05-02T09:09:49.019Z,15.75
2019-05-02T09:10:49.014Z,16.22
2019-05-02T09:12:07.124Z,16.60
2019-05-02T09:12:51.931Z,16.75
2019-05-02T09:13:49.003Z,17.14
2019-05-02T09:14:48.976Z,17.63
2019-05-02T09:15:51.276Z,18.29
2019-05-02T09:16:48.955Z,17.32
2019-05-02T09:17:52.687Z,18.25
2019-05-02T09:18:51.868Z,17.87
2019-05-02T09:20:00.384Z,18.19
2019-05-02T09:20:52.712Z,18.61
2019-05-02T09:21:52.163Z,17.73
2019-05-02T09:22:52.106Z,16.65
2019-05-02T09:23:51.759Z,17.13
2019-05-02T09:24:48.868Z,17.97
2019-05-02T09:25:48.850Z,17.89
2019-05-02T09:26:48.850Z,18.04
2019-05-02T09:27:48.832Z,18.17
2019-05-02T09:28:48.846Z,17.88
2019-05-02T09:29:48.814Z,18.34
2019-05-02T09:30:48.801Z,18.31
2019-05-02T09:31:48.794Z,18.79
2019-05-02T09:32:48.780Z,19.79
2019-05-02T09:33:48.802Z,18.83
2019-05-02T09:34:48.774Z,17.59
2019-05-02T09:35:48.747Z,18.44
2019-05-02T09:36:48.746Z,18.62
2019-05-02T09:37:48.733Z,18.43
2019-05-02T09:38:53.153Z,18.22
2019-05-02T09:39:49.732Z,17.63
2019-05-02T09:40:52.531Z,17.35
2019-05-02T09:41:49.686Z,17.32
2019-05-02T09:42:53.568Z,16.98
2019-05-02T09:43:49.664Z,17.57
2019-05-02T09:44:53.371Z,18.09
2019-05-02T09:45:51.847Z,17.17
2019-05-02T09:46:53.085Z,16.37
2019-05-02T09:47:57.253Z,16.14
2019-05-02T09:48:51.841Z,15.89
2019-05-02T09:49:50.381Z,15.41
2019-05-02T09:50:48.623Z,15.52
2019-05-02T09:51:50.334Z,15.75
2019-05-02T09:52:49.575Z,15.70
2019-05-02T09:53:48.563Z,15.78
2019-05-02T09:54:48.552Z,16.92
2019-05-02T09:55:55.019Z,17.44
2019-05-02T09:56:49.532Z,18.12
2019-05-02T09:57:48.619Z,18.65
2019-05-02T09:58:49.361Z,19.02
2019-05-02T09:59:50.504Z,18.61
2019-05-02T10:00:49.518Z,19.18
2019-05-02T10:01:48.478Z,19.42
2019-05-02T10:02:48.472Z,19.73
2019-05-02T10:03:48.454Z,20.05
2019-05-02T10:04:48.447Z,20.18
2019-05-02T10:05:48.470Z,20.08
2019-05-02T10:06:48.430Z,19.05
2019-05-02T10:07:48.767Z,18.95
2019-05-02T10:08:48.407Z,19.13
2019-05-02T10:09:48.398Z,19.13
2019-05-02T10:10:48.415Z,18.49
2019-05-02T10:11:48.375Z,18.21
2019-05-02T10:12:48.367Z,16.92
2019-05-02T10:13:48.372Z,16.48
2019-05-02T10:14:48.346Z,16.71
2019-05-02T10:15:48.377Z,16.99
2019-05-02T10:16:48.325Z,16.74
2019-05-02T10:17:48.312Z,17.28
2019-05-02T10:18:48.303Z,17.81
2019-05-02T10:19:49.536Z,18.15
2019-05-02T10:20:48.289Z,17.97
2019-05-02T10:21:52.451Z,18.03
2019-05-02T10:22:49.256Z,18.21
2019-05-02T10:23:53.740Z,18.17
2019-05-02T10:24:49.242Z,18.36
2019-05-02T10:25:48.235Z,19.13
2019-05-02T10:26:48.245Z,20.46
2019-05-02T10:27:48.210Z,20.53
2019-05-02T10:28:50.398Z,19.51
2019-05-02T10:29:48.195Z,19.83
2019-05-02T10:30:52.652Z,20.43
2019-05-02T10:31:49.192Z,20.10
2019-05-02T10:32:55.607Z,19.79
2019-05-02T10:33:49.142Z,20.03
2019-05-02T10:34:55.100Z,19.94
2019-05-02T10:35:49.125Z,19.80
2019-05-02T10:36:54.180Z,20.23
2019-05-02T10:37:49.107Z,20.66
2019-05-02T10:38:49.000Z,20.87
2019-05-02T10:39:49.083Z,21.56
2019-05-02T10:40:53.510Z,22.41
2019-05-02T10:41:49.092Z,22.93
2019-05-02T10:42:48.063Z,22.29
2019-05-02T10:43:51.953Z,21.38
2019-05-02T10:44:49.044Z,21.54
2019-05-02T10:45:52.880Z,21.91
2019-05-02T10:46:49.041Z,21.24
2019-05-02T10:47:48.016Z,20.13
2019-05-02T10:48:47.995Z,20.47
2019-05-02T10:49:48.006Z,20.56
2019-05-02T10:50:48.018Z,20.35
2019-05-02T10:51:49.605Z,19.87
2019-05-02T10:52:47.953Z,18.97
2019-05-02T10:53:52.775Z,18.06
2019-05-02T10:54:48.947Z,17.57
2019-05-02T10:55:47.922Z,17.23
2019-05-02T10:56:47.962Z,17.73
2019-05-02T10:57:47.901Z,19.08
2019-05-02T10:58:47.889Z,19.43
2019-05-02T10:59:47.879Z,19.14
2019-05-02T11:00:47.868Z,19.46
2019-05-02T11:01:47.970Z,18.82
2019-05-02T11:02:47.850Z,18.65
2019-05-02T11:03:47.842Z,18.92
2019-05-02T11:04:47.826Z,18.84
2019-05-02T11:05:47.813Z,18.46
2019-05-02T11:06:47.837Z,18.70
2019-05-02T11:07:47.797Z,18.21
2019-05-02T11:08:47.778Z,17.91
2019-05-02T11:09:47.806Z,17.87
2019-05-02T11:10:47.768Z,18.07
2019-05-02T11:11:47.783Z,18.86
2019-05-02T11:12:47.747Z,20.05
2019-05-02T11:13:47.738Z,20.30
2019-05-02T11:14:47.724Z,21.01
2019-05-02T11:15:47.711Z,21.63
2019-05-02T11:16:47.737Z,21.32
2019-05-02T11:17:47.696Z,20.39
2019-05-02T11:18:47.685Z,21.02
2019-05-02T11:19:47.706Z,21.30
2019-05-02T11:20:47.668Z,21.19
2019-05-02T11:21:56.391Z,21.13
2019-05-02T11:22:48.645Z,21.27
2019-05-02T11:23:47.733Z,21.46
2019-05-02T11:24:47.741Z,21.21
2019-05-02T11:25:47.614Z,20.93
2019-05-02T11:26:47.599Z,20.90
2019-05-02T11:27:47.590Z,20.49
2019-05-02T11:28:47.577Z,19.87
2019-05-02T11:29:47.601Z,19.76
2019-05-02T11:30:47.564Z,18.97
2019-05-02T11:31:47.544Z,19.32
2019-05-02T11:32:47.546Z,19.86
2019-05-02T11:33:47.536Z,20.02
2019-05-02T11:34:47.548Z,20.47
2019-05-02T11:35:48.934Z,20.46
2019-05-02T11:36:47.504Z,20.86
2019-05-02T11:37:47.490Z,20.71
2019-05-02T11:38:54.006Z,21.09
2019-05-02T11:39:52.663Z,21.05
2019-05-02T11:40:48.458Z,19.98
2019-05-02T11:41:47.460Z,19.43
2019-05-02T11:42:47.442Z,19.18
2019-05-02T11:43:47.435Z,19.17
2019-05-02T11:44:47.419Z,19.06
2019-05-02T11:45:47.442Z,18.72
2019-05-02T11:46:47.402Z,18.43
2019-05-02T11:47:47.392Z,19.18
2019-05-02T11:48:57.270Z,20.42
2019-05-02T11:49:52.030Z,20.50
2019-05-02T11:50:48.384Z,20.54
2019-05-02T11:51:52.691Z,21.57
2019-05-02T11:52:48.353Z,21.50
2019-05-02T11:53:47.338Z,21.19
2019-05-02T11:54:48.655Z,20.56
2019-05-02T11:55:47.348Z,20.30
2019-05-02T11:56:49.286Z,20.49
2019-05-02T11:57:47.303Z,19.98
2019-05-02T11:58:48.413Z,20.18
2019-05-02T11:59:47.272Z,19.61
2019-05-02T12:00:49.668Z,19.38
2019-05-02T12:01:59.018Z,19.66
2019-05-02T12:02:49.157Z,19.29
2019-05-02T12:03:47.255Z,19.21
2019-05-02T12:04:51.868Z,19.13
2019-05-02T12:05:48.278Z,19.36
2019-05-02T12:06:50.071Z,19.28
2019-05-02T12:07:48.182Z,20.08
2019-05-02T12:08:49.382Z,20.24
2019-05-02T12:09:52.050Z,19.84
2019-05-02T12:10:48.178Z,19.63
2019-05-02T12:11:47.456Z,20.00
2019-05-02T12:12:47.135Z,20.09
2019-05-02T12:13:51.409Z,20.24
2019-05-02T12:14:48.114Z,20.24
2019-05-02T12:15:47.142Z,19.98
2019-05-02T12:16:47.094Z,19.95
2019-05-02T12:17:47.088Z,19.31
2019-05-02T12:18:47.077Z,18.68
2019-05-02T12:19:47.064Z,18.34
2019-05-02T12:20:47.079Z,18.57
2019-05-02T12:21:47.053Z,18.70
2019-05-02T12:22:47.066Z,19.11
2019-05-02T12:23:47.037Z,18.84
2019-05-02T12:24:47.019Z,18.22
2019-05-02T12:25:47.032Z,19.15
2019-05-02T12:26:46.993Z,19.98
2019-05-02T12:27:46.988Z,20.20
2019-05-02T12:28:46.993Z,20.03
2019-05-02T12:29:50.225Z,20.02
2019-05-02T12:30:47.981Z,20.15
2019-05-02T12:31:47.185Z,20.13
2019-05-02T12:32:46.951Z,19.90
2019-05-02T12:33:46.918Z,19.63
2019-05-02T12:34:46.914Z,20.10
2019-05-02T12:35:46.926Z,20.31
2019-05-02T12:36:46.886Z,19.91
2019-05-02T12:37:47.205Z,20.61
2019-05-02T12:38:46.868Z,20.84
2019-05-02T12:39:46.893Z,21.59
2019-05-02T12:40:46.880Z,21.82
2019-05-02T12:41:47.185Z,20.91
2019-05-02T12:42:46.830Z,20.38
2019-05-02T12:43:46.821Z,20.13
2019-05-02T12:44:46.803Z,19.69
2019-05-02T12:45:46.819Z,19.66
2019-05-02T12:46:46.787Z,19.17
2019-05-02T12:47:46.776Z,18.44
2019-05-02T12:48:46.772Z,18.77
2019-05-02T12:49:46.788Z,18.82
2019-05-02T12:50:46.777Z,18.46
2019-05-02T12:51:46.730Z,18.76
2019-05-02T12:52:46.723Z,18.91
2019-05-02T12:53:46.719Z,18.87
2019-05-02T12:54:46.709Z,18.37
2019-05-02T12:55:46.720Z,18.10
2019-05-02T12:56:46.685Z,18.09
2019-05-02T12:57:46.670Z,18.80
2019-05-02T12:58:46.665Z,19.36
2019-05-02T12:59:46.653Z,19.35
2019-05-02T13:00:46.667Z,19.38
2019-05-02T13:01:46.639Z,19.75
2019-05-02T13:02:46.630Z,20.61
2019-05-02T13:03:46.614Z,20.90
2019-05-02T13:04:46.601Z,21.99
2019-05-02T13:05:46.627Z,22.19
2019-05-02T13:06:46.585Z,21.71
2019-05-02T13:07:50.410Z,21.51